Terminal Aerodrome Forecast
Issued by NWS Blacksburg, VA

Home | Current Version | Previous Version | Text Only | Print | Product List | Glossary On
Versions: 1 2 3 4 5 6 7 8 9 10 11 12 13 14 15 16 17 18 19 20 21 22 23 24 25 26 27 28 29 30 31 32
947
FTUS41 KRNK 231722
TAFROA
TAF
KROA 231722Z 2318/2418 27016G30KT P6SM SCT040 BKN250
     FM240000 29015G27KT P6SM FEW040
     FM241100 29012KT P6SM FEW070
     FM241400 29013G23KT P6SM BKN100=

USA.gov is the U.S. government's official web portal to all federal, state and local government web resources and services.